sensor_id;sensor_type;location;lat;lon;timestamp;P1;durP1;ratioP1;P2;durP2;ratioP2
77449;SDS011;66536;53.150;18.172;2023-09-19T00:03:04;23.90;;;18.20;;
77449;SDS011;66536;53.150;18.172;2023-09-19T00:05:45;29.00;;;18.70;;
77449;SDS011;66536;53.150;18.172;2023-09-19T00:08:26;29.30;;;19.70;;
77449;SDS011;66536;53.150;18.172;2023-09-19T00:11:06;28.40;;;19.80;;
77449;SDS011;66536;53.150;18.172;2023-09-19T00:13:47;30.00;;;21.30;;
77449;SDS011;66536;53.150;18.172;2023-09-19T00:16:27;28.60;;;19.30;;
77449;SDS011;66536;53.150;18.172;2023-09-19T00:19:07;29.40;;;20.50;;
77449;SDS011;66536;53.150;18.172;2023-09-19T00:21:48;30.50;;;19.50;;
77449;SDS011;66536;53.150;18.172;2023-09-19T00:24:35;26.40;;;19.60;;
77449;SDS011;66536;53.150;18.172;2023-09-19T00:27:29;27.50;;;19.40;;
77449;SDS011;66536;53.150;18.172;2023-09-19T00:30:27;24.40;;;18.30;;
77449;SDS011;66536;53.150;18.172;2023-09-19T00:33:00;25.50;;;18.70;;
77449;SDS011;66536;53.150;18.172;2023-09-19T00:35:48;24.20;;;18.70;;
77449;SDS011;66536;53.150;18.172;2023-09-19T00:38:23;29.10;;;19.30;;
77449;SDS011;66536;53.150;18.172;2023-09-19T00:41:09;25.20;;;18.80;;
77449;SDS011;66536;53.150;18.172;2023-09-19T00:43:43;26.90;;;18.80;;
77449;SDS011;66536;53.150;18.172;2023-09-19T00:46:31;27.00;;;19.70;;
77449;SDS011;66536;53.150;18.172;2023-09-19T00:49:06;26.50;;;19.10;;
77449;SDS011;66536;53.150;18.172;2023-09-19T00:51:42;29.70;;;20.30;;
77449;SDS011;66536;53.150;18.172;2023-09-19T00:54:22;29.20;;;19.60;;
77449;SDS011;66536;53.150;18.172;2023-09-19T00:56:55;31.00;;;20.30;;
77449;SDS011;66536;53.150;18.172;2023-09-19T00:59:29;26.20;;;19.20;;
77449;SDS011;66536;53.150;18.172;2023-09-19T01:02:08;25.60;;;19.20;;
77449;SDS011;66536;53.150;18.172;2023-09-19T01:04:48;26.50;;;18.60;;
77449;SDS011;66536;53.150;18.172;2023-09-19T01:07:28;25.00;;;17.60;;
77449;SDS011;66536;53.150;18.172;2023-09-19T01:10:14;22.90;;;17.50;;
77449;SDS011;66536;53.150;18.172;2023-09-19T01:13:01;23.10;;;18.10;;
77449;SDS011;66536;53.150;18.172;2023-09-19T01:18:59;19.50;;;15.60;;
77449;SDS011;66536;53.150;18.172;2023-09-19T01:21:54;18.50;;;14.80;;
77449;SDS011;66536;53.150;18.172;2023-09-19T01:24:54;18.20;;;14.60;;
77449;SDS011;66536;53.150;18.172;2023-09-19T01:27:59;21.40;;;15.50;;
77449;SDS011;66536;53.150;18.172;2023-09-19T01:31:02;14.70;;;10.00;;
77449;SDS011;66536;53.150;18.172;2023-09-19T01:36:43;12.20;;;7.40;;
77449;SDS011;66536;53.150;18.172;2023-09-19T01:39:18;9.50;;;6.50;;
77449;SDS011;66536;53.150;18.172;2023-09-19T01:42:07;9.50;;;6.50;;
77449;SDS011;66536;53.150;18.172;2023-09-19T01:48:05;9.00;;;5.30;;
77449;SDS011;66536;53.150;18.172;2023-09-19T01:50:55;8.60;;;5.30;;
77449;SDS011;66536;53.150;18.172;2023-09-19T02:00:11;7.80;;;4.30;;
77449;SDS011;66536;53.150;18.172;2023-09-19T02:03:06;6.50;;;3.60;;
77449;SDS011;66536;53.150;18.172;2023-09-19T02:06:01;8.20;;;3.80;;
77449;SDS011;66536;53.150;18.172;2023-09-19T02:08:57;5.50;;;3.50;;
77449;SDS011;66536;53.150;18.172;2023-09-19T02:11:52;6.90;;;3.60;;
77449;SDS011;66536;53.150;18.172;2023-09-19T02:14:47;5.80;;;3.60;;
77449;SDS011;66536;53.150;18.172;2023-09-19T02:17:43;5.40;;;3.60;;
77449;SDS011;66536;53.150;18.172;2023-09-19T02:20:36;6.80;;;3.20;;
77449;SDS011;66536;53.150;18.172;2023-09-19T02:23:11;5.80;;;3.10;;
77449;SDS011;66536;53.150;18.172;2023-09-19T02:25:59;5.00;;;3.30;;
77449;SDS011;66536;53.150;18.172;2023-09-19T02:28:33;7.40;;;3.40;;
77449;SDS011;66536;53.150;18.172;2023-09-19T02:31:20;7.10;;;3.60;;
77449;SDS011;66536;53.150;18.172;2023-09-19T02:33:53;8.60;;;3.80;;
77449;SDS011;66536;53.150;18.172;2023-09-19T02:36:40;8.70;;;4.10;;
77449;SDS011;66536;53.150;18.172;2023-09-19T02:39:14;6.00;;;3.00;;
77449;SDS011;66536;53.150;18.172;2023-09-19T02:42:01;9.60;;;3.40;;
77449;SDS011;66536;53.150;18.172;2023-09-19T02:44:34;5.30;;;2.80;;
77449;SDS011;66536;53.150;18.172;2023-09-19T02:47:21;4.30;;;2.60;;
77449;SDS011;66536;53.150;18.172;2023-09-19T02:50:03;6.20;;;3.00;;
77449;SDS011;66536;53.150;18.172;2023-09-19T02:52:57;4.80;;;3.20;;
77449;SDS011;66536;53.150;18.172;2023-09-19T02:55:51;7.00;;;3.10;;
77449;SDS011;66536;53.150;18.172;2023-09-19T02:58:45;4.90;;;3.40;;
77449;SDS011;66536;53.150;18.172;2023-09-19T03:01:39;5.20;;;3.10;;
77449;SDS011;66536;53.150;18.172;2023-09-19T03:04:35;5.70;;;3.20;;
77449;SDS011;66536;53.150;18.172;2023-09-19T03:07:31;8.20;;;3.70;;
77449;SDS011;66536;53.150;18.172;2023-09-19T03:10:25;10.20;;;3.80;;
77449;SDS011;66536;53.150;18.172;2023-09-19T03:13:19;7.60;;;3.90;;
77449;SDS011;66536;53.150;18.172;2023-09-19T03:16:13;7.00;;;4.10;;
77449;SDS011;66536;53.150;18.172;2023-09-19T03:19:10;8.40;;;5.00;;
77449;SDS011;66536;53.150;18.172;2023-09-19T03:22:05;11.60;;;5.90;;
77449;SDS011;66536;53.150;18.172;2023-09-19T03:24:40;12.50;;;6.00;;
77449;SDS011;66536;53.150;18.172;2023-09-19T03:27:27;11.70;;;7.00;;
77449;SDS011;66536;53.150;18.172;2023-09-19T03:30:01;15.10;;;7.60;;
77449;SDS011;66536;53.150;18.172;2023-09-19T03:32:48;9.40;;;6.50;;
77449;SDS011;66536;53.150;18.172;2023-09-19T03:35:22;10.50;;;7.20;;
77449;SDS011;66536;53.150;18.172;2023-09-19T03:38:08;14.10;;;6.10;;
77449;SDS011;66536;53.150;18.172;2023-09-19T03:40:43;12.30;;;6.80;;
77449;SDS011;66536;53.150;18.172;2023-09-19T03:43:32;9.90;;;6.20;;
77449;SDS011;66536;53.150;18.172;2023-09-19T03:46:06;9.90;;;6.90;;
77449;SDS011;66536;53.150;18.172;2023-09-19T03:48:54;10.30;;;6.00;;
77449;SDS011;66536;53.150;18.172;2023-09-19T03:51:28;11.50;;;6.40;;
77449;SDS011;66536;53.150;18.172;2023-09-19T03:54:21;13.60;;;7.00;;
77449;SDS011;66536;53.150;18.172;2023-09-19T03:57:15;9.90;;;7.20;;
77449;SDS011;66536;53.150;18.172;2023-09-19T04:00:11;13.70;;;7.10;;
77449;SDS011;66536;53.150;18.172;2023-09-19T04:03:07;10.50;;;6.10;;
77449;SDS011;66536;53.150;18.172;2023-09-19T04:06:05;13.90;;;6.40;;
77449;SDS011;66536;53.150;18.172;2023-09-19T04:09:03;11.00;;;6.80;;
77449;SDS011;66536;53.150;18.172;2023-09-19T04:11:57;12.70;;;6.60;;
77449;SDS011;66536;53.150;18.172;2023-09-19T04:14:51;10.30;;;5.90;;
77449;SDS011;66536;53.150;18.172;2023-09-19T04:17:45;11.50;;;6.10;;
77449;SDS011;66536;53.150;18.172;2023-09-19T04:20:39;8.20;;;4.80;;
77449;SDS011;66536;53.150;18.172;2023-09-19T04:23:33;11.80;;;5.10;;
77449;SDS011;66536;53.150;18.172;2023-09-19T04:26:07;8.50;;;4.50;;
77449;SDS011;66536;53.150;18.172;2023-09-19T04:28:55;43.80;;;23.80;;
77449;SDS011;66536;53.150;18.172;2023-09-19T04:31:29;9.00;;;5.90;;
77449;SDS011;66536;53.150;18.172;2023-09-19T04:34:19;6.60;;;4.70;;
77449;SDS011;66536;53.150;18.172;2023-09-19T04:36:55;7.60;;;4.10;;
77449;SDS011;66536;53.150;18.172;2023-09-19T04:39:41;9.20;;;4.50;;
77449;SDS011;66536;53.150;18.172;2023-09-19T04:42:16;8.00;;;5.30;;
77449;SDS011;66536;53.150;18.172;2023-09-19T04:45:05;24.20;;;17.30;;
77449;SDS011;66536;53.150;18.172;2023-09-19T04:47:39;10.90;;;7.60;;
77449;SDS011;66536;53.150;18.172;2023-09-19T04:50:25;8.30;;;4.50;;
77449;SDS011;66536;53.150;18.172;2023-09-19T04:53:01;6.80;;;4.70;;
77449;SDS011;66536;53.150;18.172;2023-09-19T04:55:51;9.70;;;4.70;;
77449;SDS011;66536;53.150;18.172;2023-09-19T04:58:26;7.60;;;4.00;;
77449;SDS011;66536;53.150;18.172;2023-09-19T05:01:13;10.30;;;6.00;;
77449;SDS011;66536;53.150;18.172;2023-09-19T05:03:48;7.70;;;4.70;;
77449;SDS011;66536;53.150;18.172;2023-09-19T05:06:35;7.40;;;4.40;;
77449;SDS011;66536;53.150;18.172;2023-09-19T05:09:16;8.90;;;4.30;;
77449;SDS011;66536;53.150;18.172;2023-09-19T05:12:03;6.70;;;4.00;;
77449;SDS011;66536;53.150;18.172;2023-09-19T05:14:36;5.90;;;3.80;;
77449;SDS011;66536;53.150;18.172;2023-09-19T05:17:23;9.10;;;4.60;;
77449;SDS011;66536;53.150;18.172;2023-09-19T05:19:57;7.00;;;4.00;;
77449;SDS011;66536;53.150;18.172;2023-09-19T05:22:58;8.10;;;4.50;;
77449;SDS011;66536;53.150;18.172;2023-09-19T05:25:57;13.70;;;9.60;;
77449;SDS011;66536;53.150;18.172;2023-09-19T05:28:45;13.40;;;5.90;;
77449;SDS011;66536;53.150;18.172;2023-09-19T05:31:18;10.30;;;7.60;;
77449;SDS011;66536;53.150;18.172;2023-09-19T05:33:54;8.60;;;5.20;;
77449;SDS011;66536;53.150;18.172;2023-09-19T05:36:36;6.30;;;4.30;;
77449;SDS011;66536;53.150;18.172;2023-09-19T05:39:14;6.70;;;3.90;;
77449;SDS011;66536;53.150;18.172;2023-09-19T05:42:05;6.60;;;3.80;;
77449;SDS011;66536;53.150;18.172;2023-09-19T05:44:48;5.60;;;4.10;;
77449;SDS011;66536;53.150;18.172;2023-09-19T05:47:29;6.10;;;4.00;;
77449;SDS011;66536;53.150;18.172;2023-09-19T05:50:09;11.90;;;5.30;;
77449;SDS011;66536;53.150;18.172;2023-09-19T05:52:51;13.20;;;4.10;;
77449;SDS011;66536;53.150;18.172;2023-09-19T05:55:32;7.50;;;4.00;;
77449;SDS011;66536;53.150;18.172;2023-09-19T05:58:13;7.60;;;3.20;;
77449;SDS011;66536;53.150;18.172;2023-09-19T06:00:53;7.70;;;3.80;;
77449;SDS011;66536;53.150;18.172;2023-09-19T06:03:35;7.40;;;3.80;;
77449;SDS011;66536;53.150;18.172;2023-09-19T06:06:16;8.90;;;3.90;;
77449;SDS011;66536;53.150;18.172;2023-09-19T06:08:58;5.60;;;3.40;;
77449;SDS011;66536;53.150;18.172;2023-09-19T06:11:31;9.20;;;3.60;;
77449;SDS011;66536;53.150;18.172;2023-09-19T06:14:18;9.90;;;4.30;;
77449;SDS011;66536;53.150;18.172;2023-09-19T06:16:52;14.80;;;4.60;;
77449;SDS011;66536;53.150;18.172;2023-09-19T06:26:51;6.60;;;3.90;;
77449;SDS011;66536;53.150;18.172;2023-09-19T06:29:25;10.30;;;3.50;;
77449;SDS011;66536;53.150;18.172;2023-09-19T06:32:12;7.30;;;4.00;;
77449;SDS011;66536;53.150;18.172;2023-09-19T06:34:45;7.20;;;4.20;;
77449;SDS011;66536;53.150;18.172;2023-09-19T06:37:53;7.90;;;3.80;;
77449;SDS011;66536;53.150;18.172;2023-09-19T06:40:26;8.00;;;4.30;;
77449;SDS011;66536;53.150;18.172;2023-09-19T06:43:17;6.80;;;4.20;;
77449;SDS011;66536;53.150;18.172;2023-09-19T06:45:51;4.60;;;4.10;;
77449;SDS011;66536;53.150;18.172;2023-09-19T06:48:38;6.90;;;4.60;;
77449;SDS011;66536;53.150;18.172;2023-09-19T06:51:13;5.10;;;4.30;;
77449;SDS011;66536;53.150;18.172;2023-09-19T06:54:01;4.90;;;4.00;;
77449;SDS011;66536;53.150;18.172;2023-09-19T06:56:55;7.10;;;4.10;;
77449;SDS011;66536;53.150;18.172;2023-09-19T07:00:17;10.50;;;4.50;;
77449;SDS011;66536;53.150;18.172;2023-09-19T07:03:00;8.30;;;6.10;;
77449;SDS011;66536;53.150;18.172;2023-09-19T07:05:51;10.20;;;4.60;;
77449;SDS011;66536;53.150;18.172;2023-09-19T07:08:25;6.90;;;4.20;;
77449;SDS011;66536;53.150;18.172;2023-09-19T07:11:12;8.20;;;4.70;;
77449;SDS011;66536;53.150;18.172;2023-09-19T07:13:45;7.30;;;4.60;;
77449;SDS011;66536;53.150;18.172;2023-09-19T07:16:32;7.20;;;4.10;;
77449;SDS011;66536;53.150;18.172;2023-09-19T07:19:08;5.40;;;4.40;;
77449;SDS011;66536;53.150;18.172;2023-09-19T07:21:56;7.80;;;4.80;;
77449;SDS011;66536;53.150;18.172;2023-09-19T07:24:32;7.20;;;4.90;;
77449;SDS011;66536;53.150;18.172;2023-09-19T07:27:26;7.00;;;4.60;;
77449;SDS011;66536;53.150;18.172;2023-09-19T07:30:20;6.60;;;4.70;;
77449;SDS011;66536;53.150;18.172;2023-09-19T07:33:14;7.10;;;5.00;;
77449;SDS011;66536;53.150;18.172;2023-09-19T07:36:13;15.20;;;6.00;;
77449;SDS011;66536;53.150;18.172;2023-09-19T07:39:07;7.50;;;5.00;;
77449;SDS011;66536;53.150;18.172;2023-09-19T07:42:05;8.20;;;4.60;;
77449;SDS011;66536;53.150;18.172;2023-09-19T07:44:40;8.70;;;5.10;;
77449;SDS011;66536;53.150;18.172;2023-09-19T07:47:30;10.90;;;6.00;;
77449;SDS011;66536;53.150;18.172;2023-09-19T07:50:07;7.40;;;4.70;;
77449;SDS011;66536;53.150;18.172;2023-09-19T07:53:01;7.50;;;5.10;;
77449;SDS011;66536;53.150;18.172;2023-09-19T07:55:38;7.00;;;4.60;;
77449;SDS011;66536;53.150;18.172;2023-09-19T07:58:31;6.20;;;3.90;;
77449;SDS011;66536;53.150;18.172;2023-09-19T08:01:06;7.80;;;4.40;;
77449;SDS011;66536;53.150;18.172;2023-09-19T08:03:56;6.60;;;4.20;;
77449;SDS011;66536;53.150;18.172;2023-09-19T08:06:34;5.50;;;4.00;;
77449;SDS011;66536;53.150;18.172;2023-09-19T08:09:22;5.00;;;4.10;;
77449;SDS011;66536;53.150;18.172;2023-09-19T08:11:56;5.50;;;3.90;;
77449;SDS011;66536;53.150;18.172;2023-09-19T08:14:44;4.30;;;3.90;;
77449;SDS011;66536;53.150;18.172;2023-09-19T08:17:17;7.10;;;4.90;;
77449;SDS011;66536;53.150;18.172;2023-09-19T08:20:05;8.50;;;4.70;;
77449;SDS011;66536;53.150;18.172;2023-09-19T08:22:49;5.20;;;4.20;;
77449;SDS011;66536;53.150;18.172;2023-09-19T08:25:38;6.20;;;4.30;;
77449;SDS011;66536;53.150;18.172;2023-09-19T08:28:12;6.00;;;4.80;;
77449;SDS011;66536;53.150;18.172;2023-09-19T08:31:07;6.80;;;4.20;;
77449;SDS011;66536;53.150;18.172;2023-09-19T08:33:49;6.20;;;3.90;;
77449;SDS011;66536;53.150;18.172;2023-09-19T08:36:31;9.40;;;7.10;;
77449;SDS011;66536;53.150;18.172;2023-09-19T08:39:18;6.40;;;4.40;;
77449;SDS011;66536;53.150;18.172;2023-09-19T08:42:00;7.70;;;4.00;;
77449;SDS011;66536;53.150;18.172;2023-09-19T08:44:44;5.60;;;3.70;;
77449;SDS011;66536;53.150;18.172;2023-09-19T08:47:35;6.50;;;4.30;;
77449;SDS011;66536;53.150;18.172;2023-09-19T08:50:28;5.00;;;3.30;;
77449;SDS011;66536;53.150;18.172;2023-09-19T08:53:10;4.90;;;3.70;;
77449;SDS011;66536;53.150;18.172;2023-09-19T08:55:55;6.60;;;3.50;;
77449;SDS011;66536;53.150;18.172;2023-09-19T08:58:39;5.70;;;3.30;;
77449;SDS011;66536;53.150;18.172;2023-09-19T09:01:27;8.10;;;3.50;;
77449;SDS011;66536;53.150;18.172;2023-09-19T09:04:10;7.20;;;3.60;;
77449;SDS011;66536;53.150;18.172;2023-09-19T09:06:54;5.50;;;3.30;;
77449;SDS011;66536;53.150;18.172;2023-09-19T09:09:36;7.60;;;4.40;;
77449;SDS011;66536;53.150;18.172;2023-09-19T09:12:16;4.70;;;3.80;;
77449;SDS011;66536;53.150;18.172;2023-09-19T09:14:50;6.20;;;3.70;;
77449;SDS011;66536;53.150;18.172;2023-09-19T09:17:37;8.00;;;3.80;;
77449;SDS011;66536;53.150;18.172;2023-09-19T09:20:11;5.30;;;4.10;;
77449;SDS011;66536;53.150;18.172;2023-09-19T09:22:59;5.20;;;4.10;;
77449;SDS011;66536;53.150;18.172;2023-09-19T09:28:45;6.40;;;3.50;;
77449;SDS011;66536;53.150;18.172;2023-09-19T09:31:23;5.60;;;3.30;;
77449;SDS011;66536;53.150;18.172;2023-09-19T09:34:33;5.90;;;3.70;;
77449;SDS011;66536;53.150;18.172;2023-09-19T09:37:07;4.80;;;3.50;;
77449;SDS011;66536;53.150;18.172;2023-09-19T09:40:01;4.30;;;3.40;;
77449;SDS011;66536;53.150;18.172;2023-09-19T09:42:46;6.60;;;3.30;;
77449;SDS011;66536;53.150;18.172;2023-09-19T09:45:38;5.10;;;3.30;;
77449;SDS011;66536;53.150;18.172;2023-09-19T09:48:11;4.60;;;2.90;;
77449;SDS011;66536;53.150;18.172;2023-09-19T09:51:11;4.70;;;2.80;;
77449;SDS011;66536;53.150;18.172;2023-09-19T09:53:49;3.40;;;3.10;;
77449;SDS011;66536;53.150;18.172;2023-09-19T09:56:51;4.00;;;2.80;;
77449;SDS011;66536;53.150;18.172;2023-09-19T09:59:50;6.00;;;3.00;;
77449;SDS011;66536;53.150;18.172;2023-09-19T10:02:45;4.00;;;2.90;;
77449;SDS011;66536;53.150;18.172;2023-09-19T10:05:20;5.00;;;2.60;;
77449;SDS011;66536;53.150;18.172;2023-09-19T10:08:10;3.10;;;2.80;;
77449;SDS011;66536;53.150;18.172;2023-09-19T10:10:45;5.80;;;3.00;;
77449;SDS011;66536;53.150;18.172;2023-09-19T10:13:42;7.60;;;2.60;;
77449;SDS011;66536;53.150;18.172;2023-09-19T10:16:19;4.90;;;2.60;;
77449;SDS011;66536;53.150;18.172;2023-09-19T10:19:09;5.70;;;2.20;;
77449;SDS011;66536;53.150;18.172;2023-09-19T10:21:50;4.40;;;2.50;;
77449;SDS011;66536;53.150;18.172;2023-09-19T10:24:38;4.30;;;2.50;;
77449;SDS011;66536;53.150;18.172;2023-09-19T10:27:21;6.20;;;2.80;;
77449;SDS011;66536;53.150;18.172;2023-09-19T10:30:17;7.20;;;2.50;;
77449;SDS011;66536;53.150;18.172;2023-09-19T10:32:57;9.90;;;2.60;;
77449;SDS011;66536;53.150;18.172;2023-09-19T10:35:48;7.20;;;2.90;;
77449;SDS011;66536;53.150;18.172;2023-09-19T10:38:24;4.30;;;2.20;;
77449;SDS011;66536;53.150;18.172;2023-09-19T10:41:12;3.10;;;1.80;;
77449;SDS011;66536;53.150;18.172;2023-09-19T10:43:49;4.50;;;2.30;;
77449;SDS011;66536;53.150;18.172;2023-09-19T10:46:37;4.90;;;2.30;;
77449;SDS011;66536;53.150;18.172;2023-09-19T10:49:24;5.60;;;2.30;;
77449;SDS011;66536;53.150;18.172;2023-09-19T10:52:05;5.50;;;2.90;;
77449;SDS011;66536;53.150;18.172;2023-09-19T10:54:48;4.30;;;2.00;;
77449;SDS011;66536;53.150;18.172;2023-09-19T10:57:33;3.70;;;2.20;;
77449;SDS011;66536;53.150;18.172;2023-09-19T11:00:20;7.30;;;2.60;;
77449;SDS011;66536;53.150;18.172;2023-09-19T11:06:08;9.20;;;3.00;;
77449;SDS011;66536;53.150;18.172;2023-09-19T11:12:02;4.60;;;2.40;;
77449;SDS011;66536;53.150;18.172;2023-09-19T11:14:39;6.90;;;2.70;;
77449;SDS011;66536;53.150;18.172;2023-09-19T11:17:30;4.40;;;2.30;;
77449;SDS011;66536;53.150;18.172;2023-09-19T11:23:19;5.70;;;2.40;;
77449;SDS011;66536;53.150;18.172;2023-09-19T11:25:55;5.10;;;2.30;;
77449;SDS011;66536;53.150;18.172;2023-09-19T11:28:43;3.00;;;2.20;;
77449;SDS011;66536;53.150;18.172;2023-09-19T11:31:41;3.30;;;2.00;;
77449;SDS011;66536;53.150;18.172;2023-09-19T11:41:03;3.50;;;2.60;;
77449;SDS011;66536;53.150;18.172;2023-09-19T11:47:28;3.10;;;2.50;;
77449;SDS011;66536;53.150;18.172;2023-09-19T11:50:23;3.20;;;2.30;;
77449;SDS011;66536;53.150;18.172;2023-09-19T11:53:17;3.70;;;2.30;;
77449;SDS011;66536;53.150;18.172;2023-09-19T11:56:11;4.80;;;2.50;;
77449;SDS011;66536;53.150;18.172;2023-09-19T11:58:52;4.20;;;2.40;;
77449;SDS011;66536;53.150;18.172;2023-09-19T12:01:50;5.00;;;2.30;;
77449;SDS011;66536;53.150;18.172;2023-09-19T12:04:46;4.50;;;2.70;;
77449;SDS011;66536;53.150;18.172;2023-09-19T12:07:46;3.50;;;2.30;;
77449;SDS011;66536;53.150;18.172;2023-09-19T12:10:45;4.30;;;2.20;;
77449;SDS011;66536;53.150;18.172;2023-09-19T12:13:46;4.00;;;2.40;;
77449;SDS011;66536;53.150;18.172;2023-09-19T12:16:50;7.60;;;2.60;;
77449;SDS011;66536;53.150;18.172;2023-09-19T12:19:51;5.20;;;2.10;;
77449;SDS011;66536;53.150;18.172;2023-09-19T12:22:47;2.50;;;1.90;;
77449;SDS011;66536;53.150;18.172;2023-09-19T12:25:42;3.20;;;2.00;;
77449;SDS011;66536;53.150;18.172;2023-09-19T12:28:41;3.50;;;2.50;;
77449;SDS011;66536;53.150;18.172;2023-09-19T12:31:15;4.20;;;2.40;;
77449;SDS011;66536;53.150;18.172;2023-09-19T12:34:03;3.60;;;2.20;;
77449;SDS011;66536;53.150;18.172;2023-09-19T12:36:38;4.50;;;2.20;;
77449;SDS011;66536;53.150;18.172;2023-09-19T12:39:25;4.10;;;2.30;;
77449;SDS011;66536;53.150;18.172;2023-09-19T12:42:00;4.00;;;2.40;;
77449;SDS011;66536;53.150;18.172;2023-09-19T12:44:53;3.80;;;2.10;;
77449;SDS011;66536;53.150;18.172;2023-09-19T12:47:29;3.60;;;2.50;;
77449;SDS011;66536;53.150;18.172;2023-09-19T12:50:21;3.50;;;2.40;;
77449;SDS011;66536;53.150;18.172;2023-09-19T12:53:03;3.50;;;2.50;;
77449;SDS011;66536;53.150;18.172;2023-09-19T12:55:57;4.20;;;2.30;;
77449;SDS011;66536;53.150;18.172;2023-09-19T12:58:32;3.60;;;2.10;;
77449;SDS011;66536;53.150;18.172;2023-09-19T13:01:19;3.20;;;2.30;;
77449;SDS011;66536;53.150;18.172;2023-09-19T13:07:39;4.20;;;2.40;;
77449;SDS011;66536;53.150;18.172;2023-09-19T13:10:16;5.30;;;2.60;;
77449;SDS011;66536;53.150;18.172;2023-09-19T13:13:22;3.60;;;2.60;;
77449;SDS011;66536;53.150;18.172;2023-09-19T13:15:58;2.70;;;2.10;;
77449;SDS011;66536;53.150;18.172;2023-09-19T13:18:57;2.40;;;2.00;;
77449;SDS011;66536;53.150;18.172;2023-09-19T13:21:52;4.70;;;2.50;;
77449;SDS011;66536;53.150;18.172;2023-09-19T13:24:46;7.80;;;2.70;;
77449;SDS011;66536;53.150;18.172;2023-09-19T13:27:41;3.10;;;2.20;;
77449;SDS011;66536;53.150;18.172;2023-09-19T13:30:20;4.30;;;2.50;;
77449;SDS011;66536;53.150;18.172;2023-09-19T13:33:10;6.20;;;2.00;;
77449;SDS011;66536;53.150;18.172;2023-09-19T13:35:46;6.20;;;2.30;;
77449;SDS011;66536;53.150;18.172;2023-09-19T13:38:33;3.60;;;2.00;;
77449;SDS011;66536;53.150;18.172;2023-09-19T13:41:07;4.80;;;2.30;;
77449;SDS011;66536;53.150;18.172;2023-09-19T13:43:56;2.70;;;2.00;;
77449;SDS011;66536;53.150;18.172;2023-09-19T13:46:31;2.10;;;1.80;;
77449;SDS011;66536;53.150;18.172;2023-09-19T13:49:25;5.00;;;1.90;;
77449;SDS011;66536;53.150;18.172;2023-09-19T13:52:20;5.60;;;2.60;;
77449;SDS011;66536;53.150;18.172;2023-09-19T13:55:18;6.10;;;2.20;;
77449;SDS011;66536;53.150;18.172;2023-09-19T13:58:12;4.30;;;2.20;;
77449;SDS011;66536;53.150;18.172;2023-09-19T14:01:09;5.60;;;2.20;;
77449;SDS011;66536;53.150;18.172;2023-09-19T14:04:03;4.50;;;2.60;;
77449;SDS011;66536;53.150;18.172;2023-09-19T14:07:00;4.70;;;2.60;;
77449;SDS011;66536;53.150;18.172;2023-09-19T14:09:55;4.50;;;2.30;;
77449;SDS011;66536;53.150;18.172;2023-09-19T14:12:49;4.80;;;2.70;;
77449;SDS011;66536;53.150;18.172;2023-09-19T14:15:49;4.20;;;2.50;;
77449;SDS011;66536;53.150;18.172;2023-09-19T14:18:22;4.50;;;2.40;;
77449;SDS011;66536;53.150;18.172;2023-09-19T14:21:10;4.40;;;2.20;;
77449;SDS011;66536;53.150;18.172;2023-09-19T14:23:44;3.50;;;2.40;;
77449;SDS011;66536;53.150;18.172;2023-09-19T14:26:31;5.50;;;2.70;;
77449;SDS011;66536;53.150;18.172;2023-09-19T14:29:04;6.80;;;2.70;;
77449;SDS011;66536;53.150;18.172;2023-09-19T14:31:53;3.70;;;2.80;;
77449;SDS011;66536;53.150;18.172;2023-09-19T14:34:28;4.90;;;3.00;;
77449;SDS011;66536;53.150;18.172;2023-09-19T14:37:22;4.20;;;2.40;;
77449;SDS011;66536;53.150;18.172;2023-09-19T14:39:56;6.80;;;2.80;;
77449;SDS011;66536;53.150;18.172;2023-09-19T14:42:47;4.90;;;2.70;;
77449;SDS011;66536;53.150;18.172;2023-09-19T14:45:21;3.90;;;2.60;;
77449;SDS011;66536;53.150;18.172;2023-09-19T14:48:08;4.90;;;2.70;;
77449;SDS011;66536;53.150;18.172;2023-09-19T14:50:48;4.40;;;2.40;;
77449;SDS011;66536;53.150;18.172;2023-09-19T14:53:28;4.40;;;2.40;;
77449;SDS011;66536;53.150;18.172;2023-09-19T14:56:01;4.00;;;2.70;;
77449;SDS011;66536;53.150;18.172;2023-09-19T14:58:38;6.30;;;2.50;;
77449;SDS011;66536;53.150;18.172;2023-09-19T15:01:17;4.40;;;2.60;;
77449;SDS011;66536;53.150;18.172;2023-09-19T15:04:17;4.10;;;2.60;;
77449;SDS011;66536;53.150;18.172;2023-09-19T15:06:57;4.20;;;2.80;;
77449;SDS011;66536;53.150;18.172;2023-09-19T15:09:41;4.30;;;2.50;;
77449;SDS011;66536;53.150;18.172;2023-09-19T15:23:08;5.50;;;2.70;;
77449;SDS011;66536;53.150;18.172;2023-09-19T15:26:04;6.40;;;2.90;;
77449;SDS011;66536;53.150;18.172;2023-09-19T15:29:03;5.10;;;3.50;;
77449;SDS011;66536;53.150;18.172;2023-09-19T15:31:58;4.20;;;2.30;;
77449;SDS011;66536;53.150;18.172;2023-09-19T15:59:09;4.00;;;3.40;;
77449;SDS011;66536;53.150;18.172;2023-09-19T16:02:03;9.00;;;3.80;;
77449;SDS011;66536;53.150;18.172;2023-09-19T16:04:57;8.80;;;4.20;;
77449;SDS011;66536;53.150;18.172;2023-09-19T16:07:30;4.20;;;2.80;;
77449;SDS011;66536;53.150;18.172;2023-09-19T16:10:16;6.00;;;3.10;;
77449;SDS011;66536;53.150;18.172;2023-09-19T16:12:49;4.70;;;2.80;;
77449;SDS011;66536;53.150;18.172;2023-09-19T16:15:39;7.10;;;3.40;;
77449;SDS011;66536;53.150;18.172;2023-09-19T16:18:14;4.40;;;3.30;;
77449;SDS011;66536;53.150;18.172;2023-09-19T16:21:04;7.50;;;3.50;;
77449;SDS011;66536;53.150;18.172;2023-09-19T16:23:36;6.30;;;3.90;;
77449;SDS011;66536;53.150;18.172;2023-09-19T16:26:23;9.10;;;3.60;;
77449;SDS011;66536;53.150;18.172;2023-09-19T16:28:58;6.20;;;2.70;;
77449;SDS011;66536;53.150;18.172;2023-09-19T16:31:44;5.70;;;3.50;;
77449;SDS011;66536;53.150;18.172;2023-09-19T16:34:17;6.90;;;3.40;;
77449;SDS011;66536;53.150;18.172;2023-09-19T16:37:02;6.00;;;3.40;;
77449;SDS011;66536;53.150;18.172;2023-09-19T16:39:37;7.20;;;3.20;;
77449;SDS011;66536;53.150;18.172;2023-09-19T16:42:25;5.60;;;3.70;;
77449;SDS011;66536;53.150;18.172;2023-09-19T16:44:58;5.20;;;3.90;;
77449;SDS011;66536;53.150;18.172;2023-09-19T16:47:44;8.10;;;4.30;;
77449;SDS011;66536;53.150;18.172;2023-09-19T16:50:17;5.70;;;3.20;;
77449;SDS011;66536;53.150;18.172;2023-09-19T16:53:30;5.60;;;3.00;;
77449;SDS011;66536;53.150;18.172;2023-09-19T16:56:24;7.30;;;3.00;;
77449;SDS011;66536;53.150;18.172;2023-09-19T16:59:18;5.10;;;2.80;;
77449;SDS011;66536;53.150;18.172;2023-09-19T17:01:58;9.00;;;3.00;;
77449;SDS011;66536;53.150;18.172;2023-09-19T17:04:47;5.40;;;2.90;;
77449;SDS011;66536;53.150;18.172;2023-09-19T17:07:19;6.60;;;3.20;;
77449;SDS011;66536;53.150;18.172;2023-09-19T17:10:05;7.20;;;3.40;;
77449;SDS011;66536;53.150;18.172;2023-09-19T17:12:39;6.30;;;3.40;;
77449;SDS011;66536;53.150;18.172;2023-09-19T17:15:27;6.60;;;3.30;;
77449;SDS011;66536;53.150;18.172;2023-09-19T17:18:02;7.80;;;3.90;;
77449;SDS011;66536;53.150;18.172;2023-09-19T17:21:00;6.50;;;3.30;;
77449;SDS011;66536;53.150;18.172;2023-09-19T17:23:57;11.40;;;4.00;;
77449;SDS011;66536;53.150;18.172;2023-09-19T17:26:53;9.30;;;4.10;;
77449;SDS011;66536;53.150;18.172;2023-09-19T17:29:45;10.20;;;4.30;;
77449;SDS011;66536;53.150;18.172;2023-09-19T17:32:38;10.60;;;4.20;;
77449;SDS011;66536;53.150;18.172;2023-09-19T17:35:18;8.10;;;3.70;;
77449;SDS011;66536;53.150;18.172;2023-09-19T17:37:59;9.90;;;3.90;;
77449;SDS011;66536;53.150;18.172;2023-09-19T17:40:39;9.80;;;4.40;;
77449;SDS011;66536;53.150;18.172;2023-09-19T17:43:18;9.80;;;3.70;;
77449;SDS011;66536;53.150;18.172;2023-09-19T17:48:49;10.60;;;3.90;;